ADDS METAR Data INFO
IDs: Format: Raw Decoded Include TAF

Data at: 1846 UTC 17 Oct 2017

KVPC 171753Z AUTO 04006KT 10SM CLR 19/06 A3031 RMK AO2 SLP259 T01940056 10194 20044 58015
KVPC 171653Z AUTO 06006KT 10SM CLR 18/06 A3034 RMK AO2 SLP268 T01780056
KVPC 171553Z AUTO 08007KT 040V110 10SM CLR 17/06 A3036 RMK AO2 SLP274 T01670061
KVPC 171453Z AUTO 10009KT 10SM CLR 15/06 A3036 RMK AO2 SLP274 T01500061 51006
KVPC 171353Z AUTO 00000KT 10SM CLR 11/08 A3035 RMK AO2 SLP272 T01110083
KVPC 171253Z AUTO 00000KT 10SM CLR 08/07 A3035 RMK AO2 SLP271 T00780072
KVPC 171153Z AUTO 00000KT 10SM CLR 04/04 A3034 RMK AO2 SLP269 T00440044 10072 20044 53021
KVPC 171053Z AUTO 00000KT 10SM CLR 04/04 A3031 RMK AO2 SLP259 T00440044
KVPC 170953Z AUTO 00000KT 10SM CLR 06/06 A3029 RMK AO2 SLP252 T00610061
KVPC 170853Z AUTO 00000KT 10SM CLR 06/06 A3027 RMK AO2 SLP246 T00560056 53004
KVPC 170753Z AUTO 00000KT 10SM CLR 06/06 A3027 RMK AO2 SLP243 T00610061
KVPC 170653Z AUTO 00000KT 10SM CLR 07/07 A3026 RMK AO2 SLP242 T00670067
KVPC 170553Z AUTO 00000KT 10SM CLR 07/07 A3026 RMK AO2 SLP241 T00720072 10144 20072 51007
KVPC 170453Z AUTO 00000KT 10SM CLR 10/08 A3026 RMK AO2 SLP240 T01000078 402000089
KVPC 170353Z AUTO 00000KT 10SM CLR 09/08 A3025 RMK AO2 SLP237 T00940083
KVPC 170253Z AUTO 00000KT 10SM CLR 10/08 A3024 RMK AO2 SLP234 T01000083 51018
KVPC 170153Z AUTO VRB03KT 10SM CLR 13/07 A3023 RMK AO2 SLP231 T01280072
KVPC 170053Z AUTO 36005KT 10SM CLR 13/07 A3020 RMK AO2 SLP222 T01330072
KVPC 162353Z AUTO VRB04KT 10SM CLR 14/08 A3019 RMK AO2 SLP216 T01440078 10194 20139 53015
KVPC 162253Z AUTO 34008G14KT 10SM CLR 16/07 A3017 RMK AO2 SLP208 T01560072
KVPC 162153Z AUTO 36015G20KT 10SM CLR 17/06 A3015 RMK AO2 SLP202 T01720061
KVPC 162053Z AUTO 34007G18KT 10SM CLR 19/08 A3014 RMK AO2 SLP199 T01890078 56012
KVPC 161953Z AUTO 35011G21KT 10SM CLR 19/08 A3015 RMK AO2 SLP200 T01890078
KVPC 161853Z AUTO 36011G21KT 10SM CLR 18/08 A3015 RMK AO2 SLP202 T01830083
KVPC 161753Z AUTO VRB05G14KT 10SM CLR 18/09 A3018 RMK AO2 SLP210 T01780089 10178 20117 58006
KVPC 161653Z AUTO VRB04G14KT 10SM CLR 16/09 A3020 RMK AO2 SLP217 T01560089
KVPC 161553Z AUTO 33007G18KT 10SM CLR 14/09 A3020 RMK AO2 SLP219 T01440089
KVPC 161517Z AUTO 35010G18KT 310V020 10SM SCT022 14/09 A3020 RMK AO2 T01440094
KVPC 161505Z AUTO 34010G18KT 310V010 10SM BKN021 14/09 A3020 RMK AO2 T01390094
KVPC 161453Z AUTO 34009G17KT 300V360 10SM SCT021 14/09 A3020 RMK AO2 SLP218 T01390094 51017
KVPC 161436Z AUTO 34010G16KT 10SM SCT020 13/09 A3020 RMK AO2 T01330094
KVPC 161353Z AUTO 35007G15KT 10SM BKN019 12/09 A3019 RMK AO2 SLP214 T01220094
KVPC 161253Z AUTO VRB04KT 10SM BKN017 12/10 A3017 RMK AO2 SLP210 T01170100
KVPC 161218Z AUTO VRB06KT 10SM OVC015 12/10 A3016 RMK AO2 T01170100
KVPC 161153Z AUTO VRB05KT 10SM OVC013 12/11 A3015 RMK AO2 SLP201 60016 70075 T01220106 10183 20122 53015
KVPC 161053Z AUTO 35009G16KT 10SM OVC013 13/12 A3013 RMK AO2 SLP195 T01280117
KVPC 160953Z AUTO VRB05KT 10SM OVC013 14/13 A3011 RMK AO2 SLP187 T01440133
KVPC 160931Z AUTO VRB06KT 10SM BKN014 OVC032 14/14 A3010 RMK AO2 T01440139
KVPC 160909Z AUTO VRB06G14KT 10SM FEW010 SCT017 OVC032 14/14 A3010 RMK AO2 T01440139
KVPC 160901Z AUTO 34007G17KT 290V360 10SM FEW007 BKN017 OVC033 15/14 A3010 RMK AO2 T01500139
KVPC 160853Z AUTO 35011G19KT 10SM BKN010 OVC017 15/14 A3010 RMK AO2 RAE29 CIG 007V013 SLP185 P0001 60016 T01500144 53002
KVPC 160851Z AUTO 35010G19KT 10SM BKN010 OVC017 16/15 A3010 RMK AO2 RAE29 CIG 006V013 P0001
KVPC 160813Z AUTO 34006KT 10SM -RA OVC009 16/16 A3010 RMK AO2 P0001 T01610161
KVPC 160753Z AUTO VRB05G16KT 10SM -RA OVC010 17/17 A3009 RMK AO2 RAB50 CIG 007V012 SLP179 P0000 T01670167
KVPC 160743Z AUTO 33006KT 10SM BKN008 OVC013 17/17 A3010 RMK AO2 T01670167
KVPC 160713Z AUTO 00000KT 10SM OVC011 17/17 A3010 RMK AO2 T01720172
KVPC 160659Z AUTO VRB03KT 10SM BKN009 OVC033 18/18 A3010 RMK AO2 CIG 007V014 T01780178
KVPC 160653Z AUTO VRB03KT 10SM FEW009 BKN025 OVC033 18/18 A3010 RMK AO2 RAE36 SLP181 P0015 T01780178